createdAt,value
2017-07-15T00:00:10.039Z,20.44
2017-07-15T00:01:20.400Z,20.38
2017-07-15T00:02:30.764Z,20.37
2017-07-15T00:03:40.860Z,20.44
2017-07-15T00:04:51.211Z,20.37
2017-07-15T00:06:01.567Z,20.26
2017-07-15T00:07:11.919Z,20.22
2017-07-15T00:08:21.960Z,20.12
2017-07-15T00:09:32.395Z,20.07
2017-07-15T00:10:42.902Z,19.97
2017-07-15T00:11:53.277Z,19.82
2017-07-15T00:13:03.648Z,19.9
2017-07-15T00:14:14.022Z,19.68
2017-07-15T00:15:24.391Z,19.71
2017-07-15T00:16:34.729Z,19.64
2017-07-15T00:17:45.150Z,19.65
2017-07-15T00:18:55.520Z,19.5
2017-07-15T00:20:05.579Z,19.56
2017-07-15T00:21:15.665Z,19.6
2017-07-15T00:22:25.374Z,19.52
2017-07-15T00:23:35.724Z,19.5
2017-07-15T00:24:46.073Z,19.56
2017-07-15T00:25:56.409Z,19.52
2017-07-15T00:27:06.816Z,19.49
2017-07-15T00:28:17.167Z,19.46
2017-07-15T00:29:27.516Z,19.38
2017-07-15T00:30:37.561Z,19.31
2017-07-15T00:31:47.605Z,19.46
2017-07-15T00:32:57.635Z,19.35
2017-07-15T00:34:07.998Z,19.42
2017-07-15T00:35:18.031Z,19.37
2017-07-15T00:36:28.400Z,19.35
2017-07-15T00:37:38.746Z,19.38
2017-07-15T00:38:48.843Z,19.49
2017-07-15T00:39:59.202Z,19.47
2017-07-15T00:41:09.230Z,19.37
2017-07-15T00:42:19.582Z,19.4
2017-07-15T00:43:29.943Z,19.42
2017-07-15T00:44:40.358Z,19.43
2017-07-15T00:45:50.729Z,19.4
2017-07-15T00:47:01.078Z,19.37
2017-07-15T00:48:11.429Z,19.4
2017-07-15T00:49:21.782Z,19.37
2017-07-15T00:50:32.184Z,19.37
2017-07-15T00:51:41.904Z,19.4
2017-07-15T00:52:52.268Z,19.31
2017-07-15T00:54:02.309Z,19.31
2017-07-15T00:55:12.336Z,19.31
2017-07-15T00:56:22.418Z,19.2
2017-07-15T00:57:32.773Z,19.19
2017-07-15T00:58:43.132Z,19.12
2017-07-15T00:59:53.493Z,19.16
2017-07-15T01:01:03.867Z,19.16
2017-07-15T01:02:14.227Z,19.17
2017-07-15T01:03:24.267Z,19.07
2017-07-15T01:04:34.629Z,19.07
2017-07-15T01:05:44.986Z,19.05
2017-07-15T01:06:55.017Z,19.09
2017-07-15T01:08:05.388Z,19.07
2017-07-15T01:09:15.735Z,19.15
2017-07-15T01:10:26.085Z,19.17
2017-07-15T01:11:36.109Z,19.09
2017-07-15T01:12:46.476Z,19.16
2017-07-15T01:13:56.584Z,19.19
2017-07-15T01:15:06.941Z,19.13
2017-07-15T01:16:17.312Z,19.19
2017-07-15T01:17:27.662Z,19.23
2017-07-15T01:18:38.029Z,19.27
2017-07-15T01:19:48.383Z,19.19
2017-07-15T01:20:58.426Z,19.24
2017-07-15T01:22:08.458Z,19.28
2017-07-15T01:23:18.801Z,19.27
2017-07-15T01:24:29.154Z,19.24
2017-07-15T01:25:39.514Z,19.24
2017-07-15T01:26:49.552Z,19.25
2017-07-15T01:27:59.584Z,19.3
2017-07-15T01:29:09.969Z,19.31
2017-07-15T01:30:20.329Z,19.31
2017-07-15T01:31:30.734Z,19.32
2017-07-15T01:32:41.068Z,19.31
2017-07-15T01:33:51.427Z,19.3
2017-07-15T01:35:01.460Z,19.32
2017-07-15T01:36:11.822Z,19.37
2017-07-15T01:37:22.242Z,19.42
2017-07-15T01:38:32.600Z,19.37
2017-07-15T01:39:42.634Z,19.45
2017-07-15T01:40:52.978Z,19.38
2017-07-15T01:42:03.334Z,19.34
2017-07-15T01:43:13.422Z,19.34
2017-07-15T01:44:23.454Z,19.38
2017-07-15T01:45:33.183Z,19.35
2017-07-15T01:46:43.222Z,19.43
2017-07-15T01:47:53.588Z,19.4
2017-07-15T01:49:03.905Z,19.3
2017-07-15T01:50:13.926Z,19.37
2017-07-15T01:51:24.261Z,19.47
2017-07-15T01:52:34.297Z,19.47
2017-07-15T01:53:44.645Z,19.47
2017-07-15T01:54:54.670Z,19.53
2017-07-15T01:56:05.012Z,19.56
2017-07-15T01:57:15.365Z,19.63
2017-07-15T01:58:25.730Z,19.63
2017-07-15T01:59:36.090Z,19.6
2017-07-15T02:00:46.131Z,19.53
2017-07-15T02:01:56.164Z,19.63
2017-07-15T02:03:06.536Z,19.65
2017-07-15T02:04:16.561Z,19.65
2017-07-15T02:05:26.603Z,19.64
2017-07-15T02:06:36.621Z,19.71
2017-07-15T02:07:46.981Z,19.71
2017-07-15T02:08:57.331Z,19.74
2017-07-15T02:10:07.682Z,19.82
2017-07-15T02:11:18.032Z,19.78
2017-07-15T02:12:28.393Z,19.74
2017-07-15T02:13:38.742Z,19.8
2017-07-15T02:14:49.099Z,19.75
2017-07-15T02:15:59.128Z,19.79
2017-07-15T02:17:09.520Z,19.79
2017-07-15T02:18:19.888Z,19.74
2017-07-15T02:19:29.922Z,19.75
2017-07-15T02:20:39.954Z,19.75
2017-07-15T02:21:50.310Z,19.78
2017-07-15T02:23:00.671Z,19.75
2017-07-15T02:24:11.022Z,19.78
2017-07-15T02:25:21.369Z,19.79
2017-07-15T02:26:31.403Z,19.8
2017-07-15T02:27:41.753Z,19.79
2017-07-15T02:28:51.786Z,19.85
2017-07-15T02:30:01.873Z,19.74
2017-07-15T02:31:11.897Z,19.83
2017-07-15T02:32:21.970Z,19.83
2017-07-15T02:33:31.998Z,19.75
2017-07-15T02:34:42.340Z,19.87
2017-07-15T02:35:52.416Z,19.86
2017-07-15T02:37:02.453Z,19.86
2017-07-15T02:38:12.795Z,19.9
2017-07-15T02:39:23.132Z,19.86
2017-07-15T02:40:33.473Z,19.79
2017-07-15T02:41:43.493Z,19.85
2017-07-15T02:42:53.511Z,19.93
2017-07-15T02:44:03.558Z,19.83
2017-07-15T02:45:13.590Z,19.85
2017-07-15T02:46:23.951Z,19.83
2017-07-15T02:47:34.355Z,19.86
2017-07-15T02:48:44.707Z,19.9
2017-07-15T02:49:54.415Z,19.86
2017-07-15T02:51:04.770Z,19.89
2017-07-15T02:52:15.135Z,19.87
2017-07-15T02:53:25.534Z,19.85
2017-07-15T02:54:35.888Z,19.85
2017-07-15T02:55:45.930Z,19.75
2017-07-15T02:56:56.278Z,19.78
2017-07-15T02:58:06.302Z,19.78
2017-07-15T02:59:16.707Z,19.78
2017-07-15T03:00:26.742Z,19.75
2017-07-15T03:01:37.080Z,19.74
2017-07-15T03:33:24.734Z,16.91
2017-07-15T03:34:34.769Z,16.87
2017-07-15T03:35:44.796Z,16.81
2017-07-15T03:36:55.153Z,16.85
2017-07-15T03:38:05.500Z,17.05
2017-07-15T03:39:15.577Z,17.1
2017-07-15T03:40:25.624Z,17.24
2017-07-15T03:41:35.968Z,17.28
2017-07-15T03:42:45.999Z,17.52
2017-07-15T03:43:56.348Z,17.69
2017-07-15T03:45:06.747Z,17.79
2017-07-15T03:46:17.095Z,17.96
2017-07-15T03:47:27.450Z,18.16
2017-07-15T03:48:37.486Z,18.16
2017-07-15T03:49:47.829Z,18.39
2017-07-15T03:50:58.249Z,18.56
2017-07-15T03:52:08.284Z,18.71
2017-07-15T03:53:18.344Z,18.87
2017-07-15T03:54:28.397Z,18.96
2017-07-15T03:55:38.102Z,19.15
2017-07-15T03:56:47.860Z,19.25
2017-07-15T03:57:57.895Z,19.42
2017-07-15T03:59:08.238Z,19.5
2017-07-15T04:00:18.595Z,19.64
2017-07-15T04:01:28.964Z,19.8
2017-07-15T04:02:39.042Z,19.85
2017-07-15T04:03:49.381Z,20.05
2017-07-15T04:04:59.735Z,20.12
2017-07-15T04:06:10.092Z,20.25
2017-07-15T04:07:20.448Z,20.37
2017-07-15T04:08:30.515Z,20.35
2017-07-15T04:09:40.862Z,20.46
2017-07-15T04:10:51.211Z,20.56
2017-07-15T04:12:01.566Z,20.63
2017-07-15T04:13:11.588Z,20.72
2017-07-15T04:14:21.960Z,20.86
2017-07-15T04:15:32.310Z,20.9
2017-07-15T04:16:42.673Z,20.91
2017-07-15T04:17:52.387Z,21.13
2017-07-15T04:19:02.727Z,21.08
2017-07-15T04:20:13.121Z,21.16
2017-07-15T04:21:23.168Z,21.23
2017-07-15T04:22:33.518Z,21.28
2017-07-15T04:23:43.540Z,21.43
2017-07-15T04:24:53.574Z,21.4
2017-07-15T04:26:04.010Z,21.52
2017-07-15T04:27:14.381Z,21.99
2017-07-15T04:28:24.719Z,23.59
2017-07-15T04:29:35.083Z,25.17
2017-07-15T04:30:45.433Z,26.17
2017-07-15T04:31:55.453Z,26.91
2017-07-15T04:33:05.804Z,27.52
2017-07-15T04:34:16.151Z,28.08
2017-07-15T04:35:26.513Z,28.42
2017-07-15T04:36:36.876Z,28.21
2017-07-15T04:37:46.962Z,28.49
2017-07-15T04:38:57.003Z,28.53
2017-07-15T04:40:07.367Z,28.14
2017-07-15T04:41:17.713Z,28.02
2017-07-15T04:42:27.754Z,27.72
2017-07-15T04:43:38.181Z,27.11
2017-07-15T04:44:48.208Z,26.38
2017-07-15T04:45:58.254Z,25.76
2017-07-15T04:47:08.616Z,25.26
2017-07-15T04:48:18.672Z,24.86
2017-07-15T04:49:28.757Z,24.66
2017-07-15T04:50:38.801Z,24.58
2017-07-15T04:51:48.854Z,24.55
2017-07-15T04:52:59.210Z,24.58
2017-07-15T04:54:09.581Z,24.52
2017-07-15T04:55:19.941Z,24.3
2017-07-15T04:56:29.981Z,24.3
2017-07-15T04:57:40.016Z,24.54
2017-07-15T04:58:50.030Z,24.77
2017-07-15T05:00:00.070Z,25.15
2017-07-15T05:01:10.483Z,25.57
2017-07-15T05:02:20.845Z,26.04
2017-07-15T05:03:31.206Z,26.35
2017-07-15T05:04:41.562Z,26.27
2017-07-15T05:05:51.288Z,26.52
2017-07-15T05:07:01.704Z,26.63
2017-07-15T05:08:12.062Z,26.71
2017-07-15T05:09:22.414Z,27
2017-07-15T05:10:32.752Z,27.15
2017-07-15T05:11:42.808Z,27.12
2017-07-15T05:12:53.211Z,27.04
2017-07-15T05:14:03.251Z,27.09
2017-07-15T05:15:12.968Z,27.26
2017-07-15T05:16:23.000Z,27.23
2017-07-15T05:17:33.039Z,26.3
2017-07-15T05:18:43.143Z,25.57
2017-07-15T05:19:53.172Z,25.12
2017-07-15T05:21:03.563Z,24.8
2017-07-15T05:22:13.900Z,24.71
2017-07-15T05:23:23.609Z,24.66
2017-07-15T05:24:33.899Z,24.58
2017-07-15T05:25:43.951Z,24.52
2017-07-15T05:26:54.314Z,24.44
2017-07-15T05:28:04.344Z,24.42
2017-07-15T05:29:14.710Z,24.42
2017-07-15T05:30:25.060Z,24.34
2017-07-15T05:31:34.777Z,24.39
2017-07-15T05:32:45.135Z,24.34
2017-07-15T05:33:55.512Z,24.3
2017-07-15T05:35:05.875Z,24.29
2017-07-15T05:36:15.960Z,24.33
2017-07-15T05:37:26.008Z,24.36
2017-07-15T05:38:36.385Z,24.32
2017-07-15T05:39:46.732Z,24.32
2017-07-15T05:40:57.094Z,24.32
2017-07-15T05:42:07.504Z,24.4
2017-07-15T05:43:17.847Z,24.42
2017-07-15T05:44:27.891Z,24.29
2017-07-15T05:45:38.240Z,24.18
2017-07-15T05:46:48.596Z,24.07
2017-07-15T05:47:58.680Z,24
2017-07-15T05:49:09.059Z,23.87
2017-07-15T05:50:19.426Z,23.78
2017-07-15T05:51:29.469Z,23.7
2017-07-15T05:52:39.817Z,23.64
2017-07-15T05:53:50.174Z,23.59
2017-07-15T05:55:00.529Z,23.62
2017-07-15T05:56:10.552Z,23.55
2017-07-15T05:57:20.607Z,23.47
2017-07-15T05:58:30.965Z,23.48
2017-07-15T05:59:41.356Z,23.35
2017-07-15T06:00:51.708Z,23.4
2017-07-15T06:02:02.051Z,23.34
2017-07-15T06:03:12.414Z,23.21
2017-07-15T06:04:22.762Z,23.1
2017-07-15T06:05:32.792Z,23.07
2017-07-15T06:06:43.150Z,23.04
2017-07-15T06:07:53.495Z,22.96
2017-07-15T06:09:03.860Z,22.92
2017-07-15T06:10:14.214Z,23.03
2017-07-15T06:11:24.630Z,23.15
2017-07-15T06:12:34.681Z,23.16
2017-07-15T06:13:45.022Z,23.14
2017-07-15T06:14:55.059Z,23.21
2017-07-15T06:16:05.406Z,23.24
2017-07-15T06:17:15.814Z,23.28
2017-07-15T06:18:25.850Z,23.16
2017-07-15T06:19:36.221Z,23.21
2017-07-15T06:20:46.572Z,23.18
2017-07-15T06:21:56.936Z,23.16
2017-07-15T06:23:07.277Z,23.12
2017-07-15T06:24:17.315Z,23.15
2017-07-15T06:25:27.341Z,23.14
2017-07-15T06:26:37.702Z,23.22
2017-07-15T06:27:47.723Z,23.24
2017-07-15T06:28:58.118Z,23.29
2017-07-15T06:30:08.148Z,23.32
2017-07-15T06:31:18.506Z,23.37
2017-07-15T06:32:28.223Z,23.34
2017-07-15T06:33:38.251Z,23.45
2017-07-15T06:34:48.636Z,23.53
2017-07-15T06:35:58.672Z,23.55
2017-07-15T06:37:09.015Z,23.56
2017-07-15T06:38:18.731Z,23.66
2017-07-15T06:39:29.067Z,23.72
2017-07-15T06:40:38.771Z,23.78
2017-07-15T06:41:48.819Z,23.84
2017-07-15T06:42:59.174Z,23.97
2017-07-15T06:44:09.204Z,24.07
2017-07-15T06:45:19.551Z,24.17
2017-07-15T06:46:29.977Z,24.4
2017-07-15T06:47:40.339Z,24.49
2017-07-15T06:48:50.384Z,24.71
2017-07-15T06:50:00.420Z,24.75
2017-07-15T06:51:10.767Z,24.87
2017-07-15T06:52:21.178Z,25.14
2017-07-15T06:53:31.529Z,25.29
2017-07-15T06:54:41.556Z,25.34
2017-07-15T06:55:51.596Z,25.44
2017-07-15T06:57:01.633Z,25.41
2017-07-15T06:58:11.414Z,25.56
2017-07-15T06:59:21.757Z,25.54
2017-07-15T07:00:32.121Z,25.62
2017-07-15T07:01:42.475Z,25.74
2017-07-15T07:02:52.517Z,25.88
2017-07-15T07:04:02.920Z,25.81
2017-07-15T07:05:12.951Z,25.74
2017-07-15T07:06:23.331Z,25.64
2017-07-15T07:07:33.700Z,25.59
2017-07-15T07:08:43.425Z,25.44
2017-07-15T07:09:53.838Z,25.29
2017-07-15T07:11:04.206Z,25.29
2017-07-15T07:12:14.556Z,25.26
2017-07-15T07:13:24.597Z,25.14
2017-07-15T07:14:34.644Z,24.97
2017-07-15T07:15:44.677Z,24.97
2017-07-15T07:16:54.712Z,24.86
2017-07-15T07:18:04.751Z,24.82
2017-07-15T07:19:14.816Z,24.69
2017-07-15T07:20:25.204Z,24.67
2017-07-15T07:21:35.617Z,24.59
2017-07-15T07:22:45.956Z,24.54
2017-07-15T07:23:56.294Z,24.45
2017-07-15T07:25:06.646Z,24.48
2017-07-15T07:26:17.020Z,24.51
2017-07-15T07:27:27.412Z,24.49
2017-07-15T07:28:37.765Z,24.66
2017-07-15T07:29:47.804Z,24.77
2017-07-15T07:30:58.169Z,24.78
2017-07-15T07:32:08.514Z,24.87
2017-07-15T07:33:18.604Z,24.97
2017-07-15T07:34:28.964Z,25.01
2017-07-15T07:35:39.324Z,25.14
2017-07-15T07:36:49.689Z,25.24
2017-07-15T07:38:00.055Z,25.39
2017-07-15T07:39:10.072Z,25.49
2017-07-15T07:40:20.445Z,25.62
2017-07-15T07:41:30.480Z,25.67
2017-07-15T07:42:40.836Z,25.7
2017-07-15T07:43:51.184Z,25.84
2017-07-15T07:45:01.537Z,25.96
2017-07-15T07:46:11.907Z,26.15
2017-07-15T07:47:22.263Z,26.22
2017-07-15T07:48:32.621Z,26.31
2017-07-15T07:49:42.650Z,26.3
2017-07-15T07:50:52.991Z,26.27
2017-07-15T07:52:03.041Z,26.3
2017-07-15T07:53:13.079Z,26.22
2017-07-15T07:54:23.117Z,26.16
2017-07-15T07:55:33.473Z,26.11
2017-07-15T07:56:43.843Z,26.01
2017-07-15T07:57:53.567Z,25.86
2017-07-15T07:59:03.605Z,25.82
2017-07-15T08:00:13.647Z,25.59
2017-07-15T08:01:23.991Z,25.59
2017-07-15T08:02:34.028Z,25.48
2017-07-15T08:03:44.066Z,25.42
2017-07-15T08:04:54.426Z,25.26
2017-07-15T08:06:04.782Z,25
2017-07-15T08:07:14.829Z,24.96
2017-07-15T08:08:24.871Z,24.77
2017-07-15T08:09:35.217Z,24.69
2017-07-15T08:10:45.566Z,24.55
2017-07-15T08:11:55.921Z,24.42
2017-07-15T08:13:05.963Z,24.33
2017-07-15T08:14:16.372Z,24.12
2017-07-15T08:15:26.712Z,23.96
2017-07-15T08:16:37.062Z,23.96
2017-07-15T08:17:47.405Z,23.85
2017-07-15T08:18:57.781Z,23.7
2017-07-15T08:20:07.868Z,23.66
2017-07-15T08:21:17.904Z,23.62
2017-07-15T08:22:28.260Z,23.64
2017-07-15T08:23:38.285Z,23.63
2017-07-15T08:24:48.640Z,23.72
2017-07-15T08:25:58.998Z,23.78
2017-07-15T08:27:09.350Z,23.84
2017-07-15T08:28:19.390Z,23.85
2017-07-15T08:29:29.752Z,23.97
2017-07-15T08:30:40.117Z,24.11
2017-07-15T08:31:50.153Z,24.24
2017-07-15T08:33:00.520Z,24.45
2017-07-15T08:34:10.563Z,24.69
2017-07-15T08:35:20.291Z,25.05
2017-07-15T08:36:30.667Z,25.52
2017-07-15T08:37:40.712Z,26.12
2017-07-15T08:38:51.108Z,26.49
2017-07-15T08:40:01.485Z,26.89
2017-07-15T08:41:11.542Z,26.93
2017-07-15T08:42:21.891Z,27.04
2017-07-15T08:43:32.315Z,27
2017-07-15T08:44:42.675Z,27.12
2017-07-15T08:45:52.717Z,27.12
2017-07-15T08:47:02.449Z,27.15
2017-07-15T08:48:12.829Z,27.27
2017-07-15T08:49:22.865Z,27.31
2017-07-15T08:50:33.239Z,27.49
2017-07-15T08:51:43.609Z,27.51
2017-07-15T08:52:53.976Z,27.61
2017-07-15T08:54:04.354Z,27.62
2017-07-15T08:55:14.441Z,27.57
2017-07-15T08:56:24.482Z,27.51
2017-07-15T08:57:35.239Z,27.45
2017-07-15T08:58:44.641Z,27.31
2017-07-15T08:59:54.676Z,27.06
2017-07-15T09:01:05.099Z,26.9
2017-07-15T09:02:14.827Z,26.52
2017-07-15T09:03:24.857Z,26.17
2017-07-15T09:04:35.197Z,25.81
2017-07-15T09:05:45.572Z,25.38
2017-07-15T09:06:55.765Z,24.9
2017-07-15T09:08:06.132Z,24.52
2017-07-15T09:09:16.497Z,24.15
2017-07-15T09:10:26.522Z,23.85
2017-07-15T09:11:36.574Z,23.63
2017-07-15T09:12:46.996Z,23.5
2017-07-15T09:13:57.384Z,23.41
2017-07-15T09:15:07.420Z,23.35
2017-07-15T09:16:17.766Z,23.4
2017-07-15T09:17:27.805Z,23.21
2017-07-15T09:18:37.903Z,23.15
2017-07-15T09:19:47.934Z,22.96
2017-07-15T09:20:57.319Z,22.89
2017-07-15T09:22:07.354Z,22.63
2017-07-15T09:23:17.392Z,22.51
2017-07-15T09:24:27.489Z,22.46
2017-07-15T09:25:37.850Z,22.27
2017-07-15T09:26:47.565Z,22.16
2017-07-15T09:27:57.921Z,22.31
2017-07-15T09:29:08.281Z,22.24
2017-07-15T09:30:18.373Z,22.46
2017-07-15T09:31:28.730Z,22.57
2017-07-15T09:32:39.091Z,22.78
2017-07-15T09:33:50.546Z,22.94
2017-07-15T09:35:03.276Z,23.32
2017-07-15T09:36:14.887Z,23.57
2017-07-15T09:37:27.201Z,23.84
2017-07-15T09:38:39.399Z,24.12
2017-07-15T09:39:51.127Z,24.4
2017-07-15T09:41:02.415Z,24.75
2017-07-15T09:42:13.166Z,25.39
2017-07-15T09:43:23.700Z,25.7
2017-07-15T09:44:34.944Z,25.82
2017-07-15T09:45:46.024Z,25.96
2017-07-15T09:46:59.290Z,26.01
2017-07-15T09:48:11.835Z,25.94
2017-07-15T09:49:23.192Z,25.91
2017-07-15T09:50:33.788Z,26
2017-07-15T09:51:43.922Z,26.03
2017-07-15T09:52:54.356Z,26.2
2017-07-15T09:54:04.848Z,26.35
2017-07-15T09:55:14.349Z,26.6
2017-07-15T09:56:24.436Z,27.06
2017-07-15T09:57:34.856Z,27.31
2017-07-15T09:58:46.194Z,27.62
2017-07-15T09:59:57.831Z,28.33
2017-07-15T10:01:09.189Z,28.64
2017-07-15T10:02:19.688Z,29.02
2017-07-15T10:03:30.180Z,29.35
2017-07-15T10:04:40.600Z,29.47
2017-07-15T10:05:51.006Z,29.47
2017-07-15T10:07:01.136Z,29.55
2017-07-15T10:08:12.073Z,29.67
2017-07-15T10:09:23.358Z,29.65
2017-07-15T10:10:34.484Z,29.43
2017-07-15T10:11:45.646Z,29.35
2017-07-15T10:12:56.023Z,29.21
2017-07-15T10:14:05.785Z,29.15
2017-07-15T10:15:15.850Z,29.26
2017-07-15T10:16:25.895Z,29.29
2017-07-15T10:17:36.280Z,29.26
2017-07-15T10:18:46.652Z,29.24
2017-07-15T10:19:56.741Z,29.33
2017-07-15T10:21:07.100Z,29.29
2017-07-15T10:22:17.132Z,29.3
2017-07-15T10:23:27.498Z,29.33
2017-07-15T10:24:37.854Z,29.45
2017-07-15T10:25:48.266Z,29.52
2017-07-15T10:26:57.983Z,29.54
2017-07-15T10:28:08.369Z,29.72
2017-07-15T10:29:18.731Z,29.76
2017-07-15T10:30:28.775Z,30.18
2017-07-15T10:31:39.117Z,30.4
2017-07-15T10:32:49.473Z,30.67
2017-07-15T10:33:59.829Z,30.77
2017-07-15T10:35:09.888Z,30.91
2017-07-15T10:36:19.918Z,31.18
2017-07-15T10:37:30.286Z,31.45
2017-07-15T10:38:40.642Z,31.62
2017-07-15T10:39:51.034Z,31.44
2017-07-15T10:41:01.447Z,31.52
2017-07-15T10:42:11.507Z,31.93
2017-07-15T10:43:21.570Z,32.28
2017-07-15T10:44:31.928Z,32.34
2017-07-15T10:45:42.313Z,32.28
2017-07-15T10:46:52.675Z,32.5
2017-07-15T10:48:02.733Z,32.49
2017-07-15T10:49:13.086Z,32.39
2017-07-15T10:50:23.131Z,32.25
2017-07-15T10:51:33.493Z,32.35
2017-07-15T10:52:43.565Z,32.37
2017-07-15T10:53:53.329Z,31.93
2017-07-15T10:55:03.051Z,31.75
2017-07-15T10:56:13.449Z,31.45
2017-07-15T10:57:23.979Z,31.3
2017-07-15T10:58:34.371Z,31.1
2017-07-15T10:59:44.770Z,30.96
2017-07-15T11:00:55.170Z,30.88
2017-07-15T11:02:05.535Z,30.85
2017-07-15T11:03:15.598Z,30.84
2017-07-15T11:04:25.985Z,30.86
2017-07-15T11:05:36.396Z,31.01
2017-07-15T11:06:46.766Z,31.16
2017-07-15T11:07:56.834Z,31.37
2017-07-15T11:09:07.204Z,31.26
2017-07-15T11:10:17.567Z,31.28
2017-07-15T11:11:27.940Z,31.21
2017-07-15T11:12:38.357Z,31.12
2017-07-15T11:13:48.729Z,31.01
2017-07-15T11:14:58.868Z,31.01
2017-07-15T11:16:09.232Z,31.19
2017-07-15T11:17:19.604Z,30.97
2017-07-15T11:18:29.670Z,30.7
2017-07-15T11:19:40.046Z,30.6
2017-07-15T11:20:50.477Z,30.48
2017-07-15T11:22:01.010Z,30.31
2017-07-15T11:23:11.372Z,30
2017-07-15T11:24:21.421Z,29.6
2017-07-15T11:25:31.796Z,29.15
2017-07-15T11:26:41.887Z,29.01
2017-07-15T11:27:52.252Z,28.91
2017-07-15T11:29:02.619Z,28.83
2017-07-15T11:30:12.974Z,28.95
2017-07-15T11:31:24.207Z,28.64
2017-07-15T11:32:35.801Z,28.28
2017-07-15T11:33:46.161Z,28.21
2017-07-15T11:34:56.588Z,28.03
2017-07-15T11:36:06.984Z,27.86
2017-07-15T11:37:17.396Z,27.81
2017-07-15T11:38:27.824Z,27.57
2017-07-15T11:39:38.319Z,27.55
2017-07-15T11:40:49.149Z,27.45
2017-07-15T11:41:58.915Z,27.41
2017-07-15T11:43:09.067Z,27.33
2017-07-15T11:44:19.555Z,27.24
2017-07-15T11:45:29.641Z,27.24
2017-07-15T11:46:40.015Z,27.26
2017-07-15T11:47:50.058Z,27.28
2017-07-15T11:49:00.448Z,27.52
2017-07-15T11:50:10.898Z,27.94
2017-07-15T11:51:20.982Z,28.21
2017-07-15T11:52:31.378Z,28.45
2017-07-15T11:53:42.743Z,28.67
2017-07-15T11:54:54.542Z,28.95
2017-07-15T11:56:07.882Z,29.2
2017-07-15T11:57:21.266Z,29.43
2017-07-15T11:58:34.996Z,29.33
2017-07-15T11:59:46.864Z,29.15
2017-07-15T12:00:58.445Z,29.38
2017-07-15T12:02:09.717Z,29.39
2017-07-15T12:03:19.625Z,29.13
2017-07-15T12:04:30.065Z,28.79
2017-07-15T12:05:40.501Z,28.46
2017-07-15T12:06:51.009Z,28.18
2017-07-15T12:08:00.770Z,27.9
2017-07-15T12:09:11.205Z,27.64
2017-07-15T12:10:21.666Z,27.36
2017-07-15T12:11:32.095Z,27.05
2017-07-15T12:12:42.565Z,26.74
2017-07-15T12:13:53.046Z,26.3
2017-07-15T12:15:03.216Z,26.03
2017-07-15T12:16:13.632Z,25.75
2017-07-15T12:17:24.161Z,25.49
2017-07-15T12:18:34.607Z,25.23
2017-07-15T12:19:45.007Z,25.07
2017-07-15T12:20:55.088Z,24.87
2017-07-15T12:22:05.471Z,24.78
2017-07-15T12:23:15.526Z,24.71
2017-07-15T12:24:25.691Z,24.7
2017-07-15T12:25:36.098Z,24.7
2017-07-15T12:26:46.518Z,24.78
2017-07-15T12:27:56.972Z,24.74
2017-07-15T12:29:07.356Z,24.7
2017-07-15T12:30:17.745Z,24.75
2017-07-15T12:31:27.860Z,24.82
2017-07-15T12:32:38.235Z,24.83
2017-07-15T12:33:48.593Z,24.82
2017-07-15T12:34:58.642Z,24.78
2017-07-15T12:36:08.711Z,24.85
2017-07-15T12:37:19.108Z,24.89
2017-07-15T12:38:29.469Z,24.78
2017-07-15T12:39:39.826Z,24.83
2017-07-15T12:40:50.205Z,24.75
2017-07-15T12:41:59.987Z,24.77
2017-07-15T12:43:10.349Z,24.74
2017-07-15T12:44:20.723Z,24.61
2017-07-15T12:45:30.759Z,24.48
2017-07-15T12:46:41.112Z,24.32
2017-07-15T12:47:51.487Z,24.33
2017-07-15T12:49:01.499Z,24.46
2017-07-15T12:50:11.573Z,24.45
2017-07-15T12:51:21.944Z,24.52
2017-07-15T12:52:31.999Z,24.58
2017-07-15T12:53:42.457Z,24.7
2017-07-15T12:54:52.850Z,24.67
2017-07-15T12:56:03.212Z,24.77
2017-07-15T12:57:13.590Z,24.8
2017-07-15T12:58:23.966Z,24.83
2017-07-15T12:59:34.402Z,24.83
2017-07-15T13:00:44.456Z,24.87
2017-07-15T13:01:54.812Z,25.01
2017-07-15T13:03:05.177Z,25.29
2017-07-15T13:04:15.220Z,25.52
2017-07-15T13:05:25.625Z,25.71
2017-07-15T13:06:35.991Z,26.03
2017-07-15T13:07:46.369Z,26.3
2017-07-15T13:08:56.496Z,26.6
2017-07-15T13:10:06.877Z,26.78
2017-07-15T13:11:17.719Z,26.86
2017-07-15T13:12:28.323Z,26.96
2017-07-15T13:13:39.098Z,26.93
2017-07-15T13:14:49.374Z,26.99
2017-07-15T13:15:59.907Z,27.05
2017-07-15T13:17:10.454Z,27.13
2017-07-15T13:18:20.953Z,27.16
2017-07-15T13:19:31.179Z,27.31
2017-07-15T13:20:41.795Z,27.33
2017-07-15T13:21:54.443Z,27.31
2017-07-15T13:23:10.291Z,27.28
2017-07-15T13:24:24.729Z,27.24
2017-07-15T13:25:41.840Z,27.13
2017-07-15T13:26:56.792Z,27.16
2017-07-15T13:28:11.476Z,27.15
2017-07-15T13:29:27.054Z,27.12
2017-07-15T13:30:41.423Z,27.08
2017-07-15T13:31:57.083Z,27.13
2017-07-15T13:33:11.622Z,27.15
2017-07-15T13:34:26.507Z,27.13
2017-07-15T13:35:41.498Z,27.12
2017-07-15T13:36:57.777Z,27.13
2017-07-15T13:38:14.368Z,27.15
2017-07-15T13:39:32.276Z,27.12
2017-07-15T13:40:47.964Z,27.11
2017-07-15T13:42:04.660Z,27.09
2017-07-15T13:43:20.159Z,27.06
2017-07-15T13:44:36.143Z,26.99
2017-07-15T13:45:49.006Z,27.11
2017-07-15T13:47:04.048Z,27.45
2017-07-15T13:48:19.966Z,27.55
2017-07-15T13:49:36.158Z,27.66
2017-07-15T13:50:48.131Z,27.8
2017-07-15T13:52:00.761Z,27.99
2017-07-15T13:53:14.794Z,27.98
2017-07-15T13:54:26.461Z,27.98
2017-07-15T13:55:41.119Z,27.94
2017-07-15T13:56:55.422Z,27.75
2017-07-15T13:58:08.560Z,27.57
2017-07-15T13:59:22.302Z,27.72
2017-07-15T14:00:36.912Z,27.55
2017-07-15T14:01:49.886Z,27.66
2017-07-15T14:03:03.610Z,27.93
2017-07-15T14:04:20.070Z,28.11
2017-07-15T14:05:35.555Z,28.42
2017-07-15T14:06:49.326Z,28.48
2017-07-15T14:08:04.683Z,28.6
2017-07-15T14:09:19.856Z,28.8
2017-07-15T14:10:35.751Z,28.79
2017-07-15T14:11:49.298Z,29.02
2017-07-15T14:13:02.012Z,28.91
2017-07-15T14:14:16.167Z,29.14
2017-07-15T14:15:30.577Z,29.14
2017-07-15T14:16:43.556Z,28.75
2017-07-15T14:17:55.188Z,28.7
2017-07-15T14:19:08.257Z,28.83
2017-07-15T14:20:21.874Z,29.15
2017-07-15T14:21:34.342Z,29.45
2017-07-15T14:22:49.852Z,29.5
2017-07-15T14:24:05.198Z,29.61
2017-07-15T14:25:20.539Z,29.84
2017-07-15T14:26:35.588Z,30.16
2017-07-15T14:27:50.424Z,30.16
2017-07-15T14:29:08.113Z,30.4
2017-07-15T14:30:24.859Z,30.07
2017-07-15T14:31:38.974Z,30.02
2017-07-15T14:32:55.184Z,30
2017-07-15T14:34:11.189Z,29.47
2017-07-15T14:35:24.725Z,29.02
2017-07-15T14:36:40.005Z,28.48
2017-07-15T14:37:56.006Z,28.12
2017-07-15T14:39:11.837Z,27.75
2017-07-15T14:40:26.564Z,27.42
2017-07-15T14:41:42.803Z,27.11
2017-07-15T14:43:00.111Z,26.87
2017-07-15T14:44:16.239Z,26.61
2017-07-15T14:45:32.149Z,26.37
2017-07-15T14:46:46.017Z,26.23
2017-07-15T14:47:56.423Z,26
2017-07-15T14:49:06.771Z,25.91
2017-07-15T14:50:17.143Z,25.6
2017-07-15T14:51:27.587Z,25.32
2017-07-15T14:52:37.944Z,25.11
2017-07-15T14:53:48.291Z,24.86
2017-07-15T14:54:58.809Z,24.59
2017-07-15T14:56:09.214Z,23.89
2017-07-15T14:57:19.631Z,23.35
2017-07-15T14:58:29.994Z,22.61
2017-07-15T14:59:40.369Z,21.99
2017-07-15T15:00:50.456Z,21.52
2017-07-15T15:02:00.847Z,21.06
2017-07-15T15:03:11.328Z,20.66
2017-07-15T15:04:21.706Z,20.29
2017-07-15T15:05:32.052Z,20.16
2017-07-15T15:06:42.113Z,20.11
2017-07-15T15:07:52.504Z,20.08
2017-07-15T15:09:02.939Z,20.07
2017-07-15T15:10:13.320Z,20.2
2017-07-15T15:11:23.713Z,20.27
2017-07-15T15:12:34.084Z,20.42
2017-07-15T15:13:44.133Z,20.42
2017-07-15T15:14:54.177Z,20.53
2017-07-15T15:16:04.540Z,20.6
2017-07-15T15:17:14.889Z,20.56
2017-07-15T15:18:25.255Z,20.48
2017-07-15T15:19:35.603Z,20.46
2017-07-15T15:20:46.028Z,20.35
2017-07-15T15:21:56.422Z,20.26
2017-07-15T15:23:06.477Z,20.25
2017-07-15T15:24:16.851Z,20.32
2017-07-15T15:25:26.909Z,20.26
2017-07-15T15:26:37.350Z,20.26
2017-07-15T15:27:47.709Z,20.25
2017-07-15T15:28:58.081Z,20.2
2017-07-15T15:30:08.443Z,20.19
2017-07-15T15:31:18.796Z,20.08
2017-07-15T15:32:28.563Z,19.98
2017-07-15T15:33:38.591Z,19.85
2017-07-15T15:34:48.633Z,19.78
2017-07-15T15:35:58.670Z,19.78
2017-07-15T15:37:09.040Z,19.65
2017-07-15T15:38:19.118Z,19.61
2017-07-15T15:39:29.483Z,19.5
2017-07-15T15:40:39.835Z,19.52
2017-07-15T15:41:49.872Z,19.5
2017-07-15T15:43:00.253Z,19.74
2017-07-15T15:44:10.333Z,19.61